sensor_id;sensor_type;location;lat;lon;timestamp;temperature;humidity
16970;DHT22;8601;48.718;8.992;2022-07-09T00:01:56;14.40;85.00
16970;DHT22;8601;48.718;8.992;2022-07-09T00:04:23;14.40;85.10
16970;DHT22;8601;48.718;8.992;2022-07-09T00:06:50;14.30;85.10
16970;DHT22;8601;48.718;8.992;2022-07-09T00:09:16;14.30;85.30
16970;DHT22;8601;48.718;8.992;2022-07-09T00:11:44;14.20;85.60
16970;DHT22;8601;48.718;8.992;2022-07-09T00:14:13;14.20;86.00
16970;DHT22;8601;48.718;8.992;2022-07-09T00:16:40;14.20;86.40
16970;DHT22;8601;48.718;8.992;2022-07-09T00:19:07;14.20;86.50
16970;DHT22;8601;48.718;8.992;2022-07-09T00:21:34;14.10;86.40
16970;DHT22;8601;48.718;8.992;2022-07-09T00:24:01;14.10;86.60
16970;DHT22;8601;48.718;8.992;2022-07-09T00:26:28;14.10;87.40
16970;DHT22;8601;48.718;8.992;2022-07-09T00:28:54;14.20;86.70
16970;DHT22;8601;48.718;8.992;2022-07-09T00:31:23;14.10;86.30
16970;DHT22;8601;48.718;8.992;2022-07-09T00:33:50;14.20;86.70
16970;DHT22;8601;48.718;8.992;2022-07-09T00:36:18;14.10;86.00
16970;DHT22;8601;48.718;8.992;2022-07-09T00:38:45;14.10;86.20
16970;DHT22;8601;48.718;8.992;2022-07-09T00:41:13;14.10;86.70
16970;DHT22;8601;48.718;8.992;2022-07-09T00:43:46;14.10;86.60
16970;DHT22;8601;48.718;8.992;2022-07-09T00:46:13;14.00;86.70
16970;DHT22;8601;48.718;8.992;2022-07-09T00:48:41;14.00;87.20
16970;DHT22;8601;48.718;8.992;2022-07-09T00:51:08;14.00;87.70
16970;DHT22;8601;48.718;8.992;2022-07-09T00:53:35;14.00;87.90
16970;DHT22;8601;48.718;8.992;2022-07-09T00:56:04;13.90;88.20
16970;DHT22;8601;48.718;8.992;2022-07-09T00:58:31;13.90;88.40
16970;DHT22;8601;48.718;8.992;2022-07-09T01:01:00;13.90;88.40
16970;DHT22;8601;48.718;8.992;2022-07-09T01:03:28;13.70;89.10
16970;DHT22;8601;48.718;8.992;2022-07-09T01:05:56;13.70;89.70
16970;DHT22;8601;48.718;8.992;2022-07-09T01:08:25;13.60;89.50
16970;DHT22;8601;48.718;8.992;2022-07-09T01:10:52;13.60;89.70
16970;DHT22;8601;48.718;8.992;2022-07-09T01:13:19;13.60;89.80
16970;DHT22;8601;48.718;8.992;2022-07-09T01:15:46;13.60;89.50
16970;DHT22;8601;48.718;8.992;2022-07-09T01:18:13;13.60;89.60
16970;DHT22;8601;48.718;8.992;2022-07-09T01:20:42;13.60;89.70
16970;DHT22;8601;48.718;8.992;2022-07-09T01:23:09;13.60;89.70
16970;DHT22;8601;48.718;8.992;2022-07-09T01:25:38;13.70;89.50
16970;DHT22;8601;48.718;8.992;2022-07-09T01:28:06;13.80;89.40
16970;DHT22;8601;48.718;8.992;2022-07-09T01:30:34;13.80;88.80
16970;DHT22;8601;48.718;8.992;2022-07-09T01:33:01;13.80;88.70
16970;DHT22;8601;48.718;8.992;2022-07-09T01:35:28;13.70;88.80
16970;DHT22;8601;48.718;8.992;2022-07-09T01:37:57;13.70;88.90
16970;DHT22;8601;48.718;8.992;2022-07-09T01:40:24;13.80;88.90
16970;DHT22;8601;48.718;8.992;2022-07-09T01:42:51;13.70;89.10
16970;DHT22;8601;48.718;8.992;2022-07-09T01:45:18;13.70;89.70
16970;DHT22;8601;48.718;8.992;2022-07-09T01:47:45;13.60;89.60
16970;DHT22;8601;48.718;8.992;2022-07-09T01:50:12;13.60;89.60
16970;DHT22;8601;48.718;8.992;2022-07-09T01:52:39;13.50;89.80
16970;DHT22;8601;48.718;8.992;2022-07-09T01:55:08;13.50;89.80
16970;DHT22;8601;48.718;8.992;2022-07-09T01:57:35;13.50;90.00
16970;DHT22;8601;48.718;8.992;2022-07-09T02:00:03;13.30;90.10
16970;DHT22;8601;48.718;8.992;2022-07-09T02:02:31;13.30;90.20
16970;DHT22;8601;48.718;8.992;2022-07-09T02:04:58;13.40;90.40
16970;DHT22;8601;48.718;8.992;2022-07-09T02:07:25;13.50;90.20
16970;DHT22;8601;48.718;8.992;2022-07-09T02:09:52;13.30;90.10
16970;DHT22;8601;48.718;8.992;2022-07-09T02:12:21;13.30;90.10
16970;DHT22;8601;48.718;8.992;2022-07-09T02:14:47;13.10;90.20
16970;DHT22;8601;48.718;8.992;2022-07-09T02:17:15;13.10;90.50
16970;DHT22;8601;48.718;8.992;2022-07-09T02:19:42;13.10;90.60
16970;DHT22;8601;48.718;8.992;2022-07-09T02:22:09;13.00;90.80
16970;DHT22;8601;48.718;8.992;2022-07-09T02:24:36;12.90;90.90
16970;DHT22;8601;48.718;8.992;2022-07-09T02:27:04;12.90;91.00
16970;DHT22;8601;48.718;8.992;2022-07-09T02:29:32;12.90;91.10
16970;DHT22;8601;48.718;8.992;2022-07-09T02:31:59;12.70;91.40
16970;DHT22;8601;48.718;8.992;2022-07-09T02:34:26;12.70;91.60
16970;DHT22;8601;48.718;8.992;2022-07-09T02:36:53;12.70;91.80
16970;DHT22;8601;48.718;8.992;2022-07-09T02:39:20;12.80;91.80
16970;DHT22;8601;48.718;8.992;2022-07-09T02:41:47;12.80;91.80
16970;DHT22;8601;48.718;8.992;2022-07-09T02:44:15;12.80;91.80
16970;DHT22;8601;48.718;8.992;2022-07-09T02:46:44;13.20;91.50
16970;DHT22;8601;48.718;8.992;2022-07-09T02:49:11;13.10;91.30
16970;DHT22;8601;48.718;8.992;2022-07-09T02:51:38;13.10;91.40
16970;DHT22;8601;48.718;8.992;2022-07-09T02:54:05;13.00;91.60
16970;DHT22;8601;48.718;8.992;2022-07-09T02:56:32;13.00;91.70
16970;DHT22;8601;48.718;8.992;2022-07-09T02:59:00;12.90;91.70
16970;DHT22;8601;48.718;8.992;2022-07-09T03:01:28;12.90;91.80
16970;DHT22;8601;48.718;8.992;2022-07-09T03:03:57;12.90;91.80
16970;DHT22;8601;48.718;8.992;2022-07-09T03:06:24;12.90;91.70
16970;DHT22;8601;48.718;8.992;2022-07-09T03:08:51;12.80;91.90
16970;DHT22;8601;48.718;8.992;2022-07-09T03:11:18;12.70;92.20
16970;DHT22;8601;48.718;8.992;2022-07-09T03:13:46;12.70;92.40
16970;DHT22;8601;48.718;8.992;2022-07-09T03:16:13;12.70;92.50
16970;DHT22;8601;48.718;8.992;2022-07-09T03:18:39;12.70;92.30
16970;DHT22;8601;48.718;8.992;2022-07-09T03:21:08;12.70;92.50
16970;DHT22;8601;48.718;8.992;2022-07-09T03:23:36;12.60;92.50
16970;DHT22;8601;48.718;8.992;2022-07-09T03:26:04;12.60;92.60
16970;DHT22;8601;48.718;8.992;2022-07-09T03:28:31;12.60;92.40
16970;DHT22;8601;48.718;8.992;2022-07-09T03:31:00;12.60;92.50
16970;DHT22;8601;48.718;8.992;2022-07-09T03:33:26;12.50;92.70
16970;DHT22;8601;48.718;8.992;2022-07-09T03:35:53;12.40;92.90
16970;DHT22;8601;48.718;8.992;2022-07-09T03:38:23;12.50;93.10
16970;DHT22;8601;48.718;8.992;2022-07-09T03:40:50;12.40;93.10
16970;DHT22;8601;48.718;8.992;2022-07-09T03:43:19;12.50;93.40
16970;DHT22;8601;48.718;8.992;2022-07-09T03:45:46;12.50;93.50
16970;DHT22;8601;48.718;8.992;2022-07-09T03:48:13;12.50;93.70
16970;DHT22;8601;48.718;8.992;2022-07-09T03:50:40;12.50;93.60
16970;DHT22;8601;48.718;8.992;2022-07-09T03:53:07;12.40;93.60
16970;DHT22;8601;48.718;8.992;2022-07-09T03:55:35;12.50;93.90
16970;DHT22;8601;48.718;8.992;2022-07-09T03:58:02;12.40;93.90
16970;DHT22;8601;48.718;8.992;2022-07-09T04:00:30;12.40;94.00
16970;DHT22;8601;48.718;8.992;2022-07-09T04:02:57;12.40;94.20
16970;DHT22;8601;48.718;8.992;2022-07-09T04:05:24;12.40;94.20
16970;DHT22;8601;48.718;8.992;2022-07-09T04:07:51;12.40;94.30
16970;DHT22;8601;48.718;8.992;2022-07-09T04:10:18;12.20;94.50
16970;DHT22;8601;48.718;8.992;2022-07-09T04:12:46;12.30;94.80
16970;DHT22;8601;48.718;8.992;2022-07-09T04:15:14;12.30;94.90
16970;DHT22;8601;48.718;8.992;2022-07-09T04:17:41;12.40;95.10
16970;DHT22;8601;48.718;8.992;2022-07-09T04:20:09;12.30;94.90
16970;DHT22;8601;48.718;8.992;2022-07-09T04:22:36;12.40;94.90
16970;DHT22;8601;48.718;8.992;2022-07-09T04:25:03;12.40;94.80
16970;DHT22;8601;48.718;8.992;2022-07-09T04:27:30;12.50;94.70
16970;DHT22;8601;48.718;8.992;2022-07-09T04:29:59;12.50;94.50
16970;DHT22;8601;48.718;8.992;2022-07-09T04:32:26;12.60;94.70
16970;DHT22;8601;48.718;8.992;2022-07-09T04:34:53;12.50;95.00
16970;DHT22;8601;48.718;8.992;2022-07-09T04:37:20;12.50;95.20
16970;DHT22;8601;48.718;8.992;2022-07-09T04:39:47;12.50;95.40
16970;DHT22;8601;48.718;8.992;2022-07-09T04:42:14;12.60;95.40
16970;DHT22;8601;48.718;8.992;2022-07-09T04:44:41;12.60;95.60
16970;DHT22;8601;48.718;8.992;2022-07-09T04:47:10;12.60;95.60
16970;DHT22;8601;48.718;8.992;2022-07-09T04:49:37;12.60;95.60
16970;DHT22;8601;48.718;8.992;2022-07-09T04:52:05;12.70;95.70
16970;DHT22;8601;48.718;8.992;2022-07-09T04:54:32;12.70;95.70
16970;DHT22;8601;48.718;8.992;2022-07-09T04:56:59;12.70;95.70
16970;DHT22;8601;48.718;8.992;2022-07-09T04:59:26;12.70;95.70
16970;DHT22;8601;48.718;8.992;2022-07-09T05:01:53;12.80;95.70
16970;DHT22;8601;48.718;8.992;2022-07-09T05:04:22;12.90;95.60
16970;DHT22;8601;48.718;8.992;2022-07-09T05:06:49;12.90;95.20
16970;DHT22;8601;48.718;8.992;2022-07-09T05:09:16;13.00;95.40
16970;DHT22;8601;48.718;8.992;2022-07-09T05:11:42;13.00;95.40
16970;DHT22;8601;48.718;8.992;2022-07-09T05:14:10;13.10;95.40
16970;DHT22;8601;48.718;8.992;2022-07-09T05:16:36;13.10;95.30
16970;DHT22;8601;48.718;8.992;2022-07-09T05:19:05;13.00;94.80
16970;DHT22;8601;48.718;8.992;2022-07-09T05:21:33;12.90;94.20
16970;DHT22;8601;48.718;8.992;2022-07-09T05:24:00;13.00;94.10
16970;DHT22;8601;48.718;8.992;2022-07-09T05:26:27;13.00;94.20
16970;DHT22;8601;48.718;8.992;2022-07-09T05:28:55;13.00;94.30
16970;DHT22;8601;48.718;8.992;2022-07-09T05:31:23;13.10;94.40
16970;DHT22;8601;48.718;8.992;2022-07-09T05:33:50;13.20;94.50
16970;DHT22;8601;48.718;8.992;2022-07-09T05:36:17;13.20;94.30
16970;DHT22;8601;48.718;8.992;2022-07-09T05:38:46;13.30;94.20
16970;DHT22;8601;48.718;8.992;2022-07-09T05:41:13;13.40;94.00
16970;DHT22;8601;48.718;8.992;2022-07-09T05:43:41;13.40;94.10
16970;DHT22;8601;48.718;8.992;2022-07-09T05:46:08;13.40;93.80
16970;DHT22;8601;48.718;8.992;2022-07-09T05:48:34;13.50;93.40
16970;DHT22;8601;48.718;8.992;2022-07-09T05:51:01;13.50;93.30
16970;DHT22;8601;48.718;8.992;2022-07-09T05:53:29;13.70;93.20
16970;DHT22;8601;48.718;8.992;2022-07-09T05:55:58;13.70;93.30
16970;DHT22;8601;48.718;8.992;2022-07-09T05:58:25;13.80;93.20
16970;DHT22;8601;48.718;8.992;2022-07-09T06:00:52;13.80;93.30
16970;DHT22;8601;48.718;8.992;2022-07-09T06:03:19;13.90;93.00
16970;DHT22;8601;48.718;8.992;2022-07-09T06:05:46;14.00;93.10
16970;DHT22;8601;48.718;8.992;2022-07-09T06:08:13;14.00;93.10
16970;DHT22;8601;48.718;8.992;2022-07-09T06:10:40;14.20;93.50
16970;DHT22;8601;48.718;8.992;2022-07-09T06:13:09;14.20;93.10
16970;DHT22;8601;48.718;8.992;2022-07-09T06:15:36;14.30;92.70
16970;DHT22;8601;48.718;8.992;2022-07-09T06:18:03;14.30;92.10
16970;DHT22;8601;48.718;8.992;2022-07-09T06:20:32;14.40;92.10
16970;DHT22;8601;48.718;8.992;2022-07-09T06:22:59;14.40;90.70
16970;DHT22;8601;48.718;8.992;2022-07-09T06:25:26;14.50;91.20
16970;DHT22;8601;48.718;8.992;2022-07-09T06:27:53;14.50;90.70
16970;DHT22;8601;48.718;8.992;2022-07-09T06:30:21;14.60;91.30
16970;DHT22;8601;48.718;8.992;2022-07-09T06:32:48;14.60;91.00
16970;DHT22;8601;48.718;8.992;2022-07-09T06:35:16;14.80;91.30
16970;DHT22;8601;48.718;8.992;2022-07-09T06:37:44;14.80;91.10
16970;DHT22;8601;48.718;8.992;2022-07-09T06:40:12;14.90;91.10
16970;DHT22;8601;48.718;8.992;2022-07-09T06:42:39;15.00;91.20
16970;DHT22;8601;48.718;8.992;2022-07-09T06:45:08;15.10;90.70
16970;DHT22;8601;48.718;8.992;2022-07-09T06:47:36;15.20;90.30
16970;DHT22;8601;48.718;8.992;2022-07-09T06:50:03;15.30;90.50
16970;DHT22;8601;48.718;8.992;2022-07-09T06:52:30;15.40;90.10
16970;DHT22;8601;48.718;8.992;2022-07-09T06:54:58;15.50;90.50
16970;DHT22;8601;48.718;8.992;2022-07-09T06:57:25;15.70;90.60
16970;DHT22;8601;48.718;8.992;2022-07-09T06:59:52;15.80;89.80
16970;DHT22;8601;48.718;8.992;2022-07-09T07:02:19;15.90;89.80
16970;DHT22;8601;48.718;8.992;2022-07-09T07:04:47;16.00;90.00
16970;DHT22;8601;48.718;8.992;2022-07-09T07:07:14;16.10;87.30
16970;DHT22;8601;48.718;8.992;2022-07-09T07:09:41;16.30;87.40
16970;DHT22;8601;48.718;8.992;2022-07-09T07:12:08;16.40;85.90
16970;DHT22;8601;48.718;8.992;2022-07-09T07:14:36;16.50;84.70
16970;DHT22;8601;48.718;8.992;2022-07-09T07:17:03;16.60;85.20
16970;DHT22;8601;48.718;8.992;2022-07-09T07:19:31;16.70;86.40
16970;DHT22;8601;48.718;8.992;2022-07-09T07:21:59;16.80;88.00
16970;DHT22;8601;48.718;8.992;2022-07-09T07:24:26;16.80;87.30
16970;DHT22;8601;48.718;8.992;2022-07-09T07:26:53;16.80;87.80
16970;DHT22;8601;48.718;8.992;2022-07-09T07:29:21;16.80;88.90
16970;DHT22;8601;48.718;8.992;2022-07-09T07:31:48;16.90;89.60
16970;DHT22;8601;48.718;8.992;2022-07-09T07:34:16;16.90;90.10
16970;DHT22;8601;48.718;8.992;2022-07-09T07:36:44;16.90;90.00
16970;DHT22;8601;48.718;8.992;2022-07-09T07:39:12;16.90;90.20
16970;DHT22;8601;48.718;8.992;2022-07-09T07:41:39;16.90;90.40
16970;DHT22;8601;48.718;8.992;2022-07-09T07:44:06;17.00;90.80
16970;DHT22;8601;48.718;8.992;2022-07-09T07:46:33;17.10;86.50
16970;DHT22;8601;48.718;8.992;2022-07-09T07:49:00;17.20;87.00
16970;DHT22;8601;48.718;8.992;2022-07-09T07:51:26;17.40;82.80
16970;DHT22;8601;48.718;8.992;2022-07-09T07:53:54;17.50;84.00
16970;DHT22;8601;48.718;8.992;2022-07-09T07:56:23;17.60;83.20
16970;DHT22;8601;48.718;8.992;2022-07-09T07:58:49;17.70;79.40
16970;DHT22;8601;48.718;8.992;2022-07-09T08:01:16;17.70;77.90
16970;DHT22;8601;48.718;8.992;2022-07-09T08:03:44;17.80;78.90
16970;DHT22;8601;48.718;8.992;2022-07-09T08:06:12;18.00;78.50
16970;DHT22;8601;48.718;8.992;2022-07-09T08:08:39;18.10;74.80
16970;DHT22;8601;48.718;8.992;2022-07-09T08:11:06;18.40;73.10
16970;DHT22;8601;48.718;8.992;2022-07-09T08:13:35;18.50;72.50
16970;DHT22;8601;48.718;8.992;2022-07-09T08:16:02;18.60;75.10
16970;DHT22;8601;48.718;8.992;2022-07-09T08:18:28;18.70;74.90
16970;DHT22;8601;48.718;8.992;2022-07-09T08:20:55;18.80;75.70
16970;DHT22;8601;48.718;8.992;2022-07-09T08:23:22;18.80;74.60
16970;DHT22;8601;48.718;8.992;2022-07-09T08:25:49;18.90;74.40
16970;DHT22;8601;48.718;8.992;2022-07-09T08:28:16;19.00;77.60
16970;DHT22;8601;48.718;8.992;2022-07-09T08:30:45;19.20;77.10
16970;DHT22;8601;48.718;8.992;2022-07-09T08:33:12;19.40;76.80
16970;DHT22;8601;48.718;8.992;2022-07-09T08:35:39;19.60;76.80
16970;DHT22;8601;48.718;8.992;2022-07-09T08:38:07;19.70;75.60
16970;DHT22;8601;48.718;8.992;2022-07-09T08:40:34;19.90;77.40
16970;DHT22;8601;48.718;8.992;2022-07-09T08:43:03;20.00;76.40
16970;DHT22;8601;48.718;8.992;2022-07-09T08:45:30;20.40;74.20
16970;DHT22;8601;48.718;8.992;2022-07-09T08:48:00;20.40;73.10
16970;DHT22;8601;48.718;8.992;2022-07-09T08:50:28;20.60;72.00
16970;DHT22;8601;48.718;8.992;2022-07-09T08:52:55;20.70;71.60
16970;DHT22;8601;48.718;8.992;2022-07-09T08:55:22;20.70;72.10
16970;DHT22;8601;48.718;8.992;2022-07-09T08:57:50;20.70;70.80
16970;DHT22;8601;48.718;8.992;2022-07-09T09:00:17;20.80;69.80
16970;DHT22;8601;48.718;8.992;2022-07-09T09:02:44;21.10;68.90
16970;DHT22;8601;48.718;8.992;2022-07-09T09:05:14;21.30;70.50
16970;DHT22;8601;48.718;8.992;2022-07-09T09:07:42;21.70;70.50
16970;DHT22;8601;48.718;8.992;2022-07-09T09:10:20;21.80;68.60
16970;DHT22;8601;48.718;8.992;2022-07-09T09:12:48;21.80;67.10
16970;DHT22;8601;48.718;8.992;2022-07-09T09:15:17;22.20;65.50
16970;DHT22;8601;48.718;8.992;2022-07-09T09:17:44;22.20;65.70
16970;DHT22;8601;48.718;8.992;2022-07-09T09:20:13;22.30;65.80
16970;DHT22;8601;48.718;8.992;2022-07-09T09:22:47;22.40;62.80
16970;DHT22;8601;48.718;8.992;2022-07-09T09:25:18;22.40;62.70
16970;DHT22;8601;48.718;8.992;2022-07-09T09:27:51;22.60;64.10
16970;DHT22;8601;48.718;8.992;2022-07-09T09:30:19;23.10;63.90
16970;DHT22;8601;48.718;8.992;2022-07-09T09:32:54;23.50;62.20
16970;DHT22;8601;48.718;8.992;2022-07-09T09:35:23;23.60;62.30
16970;DHT22;8601;48.718;8.992;2022-07-09T09:37:51;23.60;58.50
16970;DHT22;8601;48.718;8.992;2022-07-09T09:40:18;23.20;59.50
16970;DHT22;8601;48.718;8.992;2022-07-09T09:42:46;23.40;61.30
16970;DHT22;8601;48.718;8.992;2022-07-09T09:45:14;23.90;59.10
16970;DHT22;8601;48.718;8.992;2022-07-09T09:47:45;24.20;56.60
16970;DHT22;8601;48.718;8.992;2022-07-09T09:50:16;24.40;56.70
16970;DHT22;8601;48.718;8.992;2022-07-09T09:52:47;24.30;56.50
16970;DHT22;8601;48.718;8.992;2022-07-09T09:55:15;24.40;56.50
16970;DHT22;8601;48.718;8.992;2022-07-09T09:57:43;24.40;56.40
16970;DHT22;8601;48.718;8.992;2022-07-09T10:00:12;24.60;55.60
16970;DHT22;8601;48.718;8.992;2022-07-09T10:02:42;24.80;55.10
16970;DHT22;8601;48.718;8.992;2022-07-09T10:05:10;24.70;55.60
16970;DHT22;8601;48.718;8.992;2022-07-09T10:07:37;24.50;55.80
16970;DHT22;8601;48.718;8.992;2022-07-09T10:10:07;24.50;56.80
16970;DHT22;8601;48.718;8.992;2022-07-09T10:12:35;24.70;54.50
16970;DHT22;8601;48.718;8.992;2022-07-09T10:15:08;24.60;54.30
16970;DHT22;8601;48.718;8.992;2022-07-09T10:17:45;24.60;56.90
16970;DHT22;8601;48.718;8.992;2022-07-09T10:20:13;24.50;53.90
16970;DHT22;8601;48.718;8.992;2022-07-09T10:22:41;24.20;54.60
16970;DHT22;8601;48.718;8.992;2022-07-09T10:25:10;24.40;56.20
16970;DHT22;8601;48.718;8.992;2022-07-09T10:27:43;24.30;53.50
16970;DHT22;8601;48.718;8.992;2022-07-09T10:30:23;24.30;54.50
16970;DHT22;8601;48.718;8.992;2022-07-09T10:33:04;24.60;53.80
16970;DHT22;8601;48.718;8.992;2022-07-09T10:35:39;24.70;54.00
16970;DHT22;8601;48.718;8.992;2022-07-09T10:38:08;24.80;53.40
16970;DHT22;8601;48.718;8.992;2022-07-09T10:40:41;25.20;52.10
16970;DHT22;8601;48.718;8.992;2022-07-09T10:43:09;25.50;52.90
16970;DHT22;8601;48.718;8.992;2022-07-09T10:45:38;25.90;50.40
16970;DHT22;8601;48.718;8.992;2022-07-09T10:48:06;26.20;52.30
16970;DHT22;8601;48.718;8.992;2022-07-09T10:50:38;26.00;53.20
16970;DHT22;8601;48.718;8.992;2022-07-09T10:53:05;25.50;52.80
16970;DHT22;8601;48.718;8.992;2022-07-09T10:55:33;24.90;54.10
16970;DHT22;8601;48.718;8.992;2022-07-09T10:58:03;24.70;54.20
16970;DHT22;8601;48.718;8.992;2022-07-09T11:00:34;23.90;55.00
16970;DHT22;8601;48.718;8.992;2022-07-09T11:03:03;23.70;57.80
16970;DHT22;8601;48.718;8.992;2022-07-09T11:05:33;23.70;56.90
16970;DHT22;8601;48.718;8.992;2022-07-09T11:08:03;23.60;57.70
16970;DHT22;8601;48.718;8.992;2022-07-09T11:10:32;23.70;58.30
16970;DHT22;8601;48.718;8.992;2022-07-09T11:13:03;23.90;58.60
16970;DHT22;8601;48.718;8.992;2022-07-09T11:15:33;23.80;58.70
16970;DHT22;8601;48.718;8.992;2022-07-09T11:18:01;23.90;57.00
16970;DHT22;8601;48.718;8.992;2022-07-09T11:20:30;23.80;57.40
16970;DHT22;8601;48.718;8.992;2022-07-09T11:22:58;23.70;55.80
16970;DHT22;8601;48.718;8.992;2022-07-09T11:25:27;23.80;58.80
16970;DHT22;8601;48.718;8.992;2022-07-09T11:27:54;23.80;58.30
16970;DHT22;8601;48.718;8.992;2022-07-09T11:30:23;23.80;58.60
16970;DHT22;8601;48.718;8.992;2022-07-09T11:32:57;23.80;59.00
16970;DHT22;8601;48.718;8.992;2022-07-09T11:35:28;23.70;58.70
16970;DHT22;8601;48.718;8.992;2022-07-09T11:37:57;23.70;60.10
16970;DHT22;8601;48.718;8.992;2022-07-09T11:40:25;23.60;60.20
16970;DHT22;8601;48.718;8.992;2022-07-09T11:42:52;23.70;60.20
16970;DHT22;8601;48.718;8.992;2022-07-09T11:45:25;23.70;60.80
16970;DHT22;8601;48.718;8.992;2022-07-09T11:48:03;23.80;60.70
16970;DHT22;8601;48.718;8.992;2022-07-09T11:50:33;23.80;60.90
16970;DHT22;8601;48.718;8.992;2022-07-09T11:53:00;23.80;61.10
16970;DHT22;8601;48.718;8.992;2022-07-09T11:55:31;23.90;60.50
16970;DHT22;8601;48.718;8.992;2022-07-09T11:58:00;24.00;60.40
16970;DHT22;8601;48.718;8.992;2022-07-09T12:00:33;23.90;60.10
16970;DHT22;8601;48.718;8.992;2022-07-09T12:03:00;24.00;60.00
16970;DHT22;8601;48.718;8.992;2022-07-09T12:05:30;24.40;59.30
16970;DHT22;8601;48.718;8.992;2022-07-09T12:07:58;24.60;58.70
16970;DHT22;8601;48.718;8.992;2022-07-09T12:10:27;24.60;58.80
16970;DHT22;8601;48.718;8.992;2022-07-09T12:12:54;24.70;56.80
16970;DHT22;8601;48.718;8.992;2022-07-09T12:15:22;25.00;58.10
16970;DHT22;8601;48.718;8.992;2022-07-09T12:17:54;25.20;57.20
16970;DHT22;8601;48.718;8.992;2022-07-09T12:20:22;25.30;56.10
16970;DHT22;8601;48.718;8.992;2022-07-09T12:22:49;25.30;56.80
16970;DHT22;8601;48.718;8.992;2022-07-09T12:25:17;24.90;57.10
16970;DHT22;8601;48.718;8.992;2022-07-09T12:27:44;24.80;57.30
16970;DHT22;8601;48.718;8.992;2022-07-09T12:30:13;24.60;58.30
16970;DHT22;8601;48.718;8.992;2022-07-09T12:32:40;24.60;59.10
16970;DHT22;8601;48.718;8.992;2022-07-09T12:35:10;24.70;58.90
16970;DHT22;8601;48.718;8.992;2022-07-09T12:37:37;25.00;58.10
16970;DHT22;8601;48.718;8.992;2022-07-09T12:40:06;24.70;57.80
16970;DHT22;8601;48.718;8.992;2022-07-09T12:42:35;25.00;56.90
16970;DHT22;8601;48.718;8.992;2022-07-09T12:45:02;25.00;56.00
16970;DHT22;8601;48.718;8.992;2022-07-09T12:47:29;25.00;55.20
16970;DHT22;8601;48.718;8.992;2022-07-09T12:49:56;25.00;55.20
16970;DHT22;8601;48.718;8.992;2022-07-09T12:52:24;25.40;55.40
16970;DHT22;8601;48.718;8.992;2022-07-09T12:54:52;25.20;54.10
16970;DHT22;8601;48.718;8.992;2022-07-09T12:57:19;25.20;55.90
16970;DHT22;8601;48.718;8.992;2022-07-09T12:59:47;25.20;55.60
16970;DHT22;8601;48.718;8.992;2022-07-09T13:02:22;25.70;54.10
16970;DHT22;8601;48.718;8.992;2022-07-09T13:04:52;25.90;53.40
16970;DHT22;8601;48.718;8.992;2022-07-09T13:07:19;26.10;53.10
16970;DHT22;8601;48.718;8.992;2022-07-09T13:09:47;26.20;53.80
16970;DHT22;8601;48.718;8.992;2022-07-09T13:12:16;26.10;52.70
16970;DHT22;8601;48.718;8.992;2022-07-09T13:14:43;25.80;53.00
16970;DHT22;8601;48.718;8.992;2022-07-09T13:17:10;25.60;52.90
16970;DHT22;8601;48.718;8.992;2022-07-09T13:19:37;25.70;52.60
16970;DHT22;8601;48.718;8.992;2022-07-09T13:22:04;25.80;53.00
16970;DHT22;8601;48.718;8.992;2022-07-09T13:24:33;25.80;53.40
16970;DHT22;8601;48.718;8.992;2022-07-09T13:27:03;25.70;54.30
16970;DHT22;8601;48.718;8.992;2022-07-09T13:29:34;25.70;51.90
16970;DHT22;8601;48.718;8.992;2022-07-09T13:32:01;25.30;52.00
16970;DHT22;8601;48.718;8.992;2022-07-09T13:34:28;25.30;52.70
16970;DHT22;8601;48.718;8.992;2022-07-09T13:36:56;25.20;52.90
16970;DHT22;8601;48.718;8.992;2022-07-09T13:39:24;25.40;52.60
16970;DHT22;8601;48.718;8.992;2022-07-09T13:41:51;25.40;52.70
16970;DHT22;8601;48.718;8.992;2022-07-09T13:44:20;25.20;52.80
16970;DHT22;8601;48.718;8.992;2022-07-09T13:46:46;24.80;52.90
16970;DHT22;8601;48.718;8.992;2022-07-09T13:49:13;24.90;54.50
16970;DHT22;8601;48.718;8.992;2022-07-09T13:51:41;24.90;53.60
16970;DHT22;8601;48.718;8.992;2022-07-09T13:54:10;24.80;53.10
16970;DHT22;8601;48.718;8.992;2022-07-09T13:56:36;24.70;53.00
16970;DHT22;8601;48.718;8.992;2022-07-09T13:59:03;24.70;53.40
16970;DHT22;8601;48.718;8.992;2022-07-09T14:01:32;24.80;53.70
16970;DHT22;8601;48.718;8.992;2022-07-09T14:03:59;24.70;53.70
16970;DHT22;8601;48.718;8.992;2022-07-09T14:06:26;24.60;53.10
16970;DHT22;8601;48.718;8.992;2022-07-09T14:08:53;24.60;52.90
16970;DHT22;8601;48.718;8.992;2022-07-09T14:11:22;24.90;54.40
16970;DHT22;8601;48.718;8.992;2022-07-09T14:13:50;25.10;53.20
16970;DHT22;8601;48.718;8.992;2022-07-09T14:16:20;25.10;52.80
16970;DHT22;8601;48.718;8.992;2022-07-09T14:18:54;25.00;54.10
16970;DHT22;8601;48.718;8.992;2022-07-09T14:21:21;25.00;54.60
16970;DHT22;8601;48.718;8.992;2022-07-09T14:23:48;25.20;53.90
16970;DHT22;8601;48.718;8.992;2022-07-09T14:26:16;25.20;53.30
16970;DHT22;8601;48.718;8.992;2022-07-09T14:28:45;25.20;52.50
16970;DHT22;8601;48.718;8.992;2022-07-09T14:31:12;25.40;53.40
16970;DHT22;8601;48.718;8.992;2022-07-09T14:33:39;25.40;52.90
16970;DHT22;8601;48.718;8.992;2022-07-09T14:36:07;25.60;54.00
16970;DHT22;8601;48.718;8.992;2022-07-09T14:38:34;25.70;53.10
16970;DHT22;8601;48.718;8.992;2022-07-09T14:41:03;26.00;52.50
16970;DHT22;8601;48.718;8.992;2022-07-09T14:43:32;26.10;52.80
16970;DHT22;8601;48.718;8.992;2022-07-09T14:45:59;26.50;53.70
16970;DHT22;8601;48.718;8.992;2022-07-09T14:48:26;26.50;51.20
16970;DHT22;8601;48.718;8.992;2022-07-09T14:50:53;26.60;52.50
16970;DHT22;8601;48.718;8.992;2022-07-09T14:53:22;26.50;53.50
16970;DHT22;8601;48.718;8.992;2022-07-09T14:55:49;26.10;51.90
16970;DHT22;8601;48.718;8.992;2022-07-09T14:58:16;26.00;55.20
16970;DHT22;8601;48.718;8.992;2022-07-09T15:00:43;25.70;53.50
16970;DHT22;8601;48.718;8.992;2022-07-09T15:03:10;25.80;52.50
16970;DHT22;8601;48.718;8.992;2022-07-09T15:05:37;25.90;54.20
16970;DHT22;8601;48.718;8.992;2022-07-09T15:08:05;25.90;50.80
16970;DHT22;8601;48.718;8.992;2022-07-09T15:10:33;25.90;54.40
16970;DHT22;8601;48.718;8.992;2022-07-09T15:13:02;26.00;51.50
16970;DHT22;8601;48.718;8.992;2022-07-09T15:15:30;26.00;51.70
16970;DHT22;8601;48.718;8.992;2022-07-09T15:17:58;25.80;53.90
16970;DHT22;8601;48.718;8.992;2022-07-09T15:20:25;26.00;53.10
16970;DHT22;8601;48.718;8.992;2022-07-09T15:27:58;25.60;53.60
16970;DHT22;8601;48.718;8.992;2022-07-09T15:30:25;25.50;52.80
16970;DHT22;8601;48.718;8.992;2022-07-09T15:32:52;25.30;54.00
16970;DHT22;8601;48.718;8.992;2022-07-09T15:35:24;25.10;55.50
16970;DHT22;8601;48.718;8.992;2022-07-09T15:38:07;24.80;55.50
16970;DHT22;8601;48.718;8.992;2022-07-09T15:40:46;24.80;55.10
16970;DHT22;8601;48.718;8.992;2022-07-09T15:43:15;24.90;55.70
16970;DHT22;8601;48.718;8.992;2022-07-09T15:45:43;24.80;57.10
16970;DHT22;8601;48.718;8.992;2022-07-09T15:48:16;24.70;56.80
16970;DHT22;8601;48.718;8.992;2022-07-09T15:50:50;24.70;57.20
16970;DHT22;8601;48.718;8.992;2022-07-09T15:53:17;24.70;58.50
16970;DHT22;8601;48.718;8.992;2022-07-09T15:55:44;24.60;56.90